LECV weather

Base Aérea de Colmenar Viejo
Colmenar Viejo, Madrid, Spain

Public forecast

Using degrees Celsius for public forecast. Weather courtesy of forecast.io.

Closest aviation weather report (METAR) to Base Aérea de Colmenar Viejo

Closest report is Adolfo Suárez Madrid–Barajas Airport, 16.3 nm (30.2 km) SE. Retrieved 2019/10/17 07:30 UTC (0 seconds ago):

LEMD 170730Z 01002KT 9999 -DZ FEW045 SCT070 08/07 Q1020 R88/19//95 NOSIG

Closest aviation forecast (TAF) to Base Aérea de Colmenar Viejo

Closest forecast is Adolfo Suárez Madrid–Barajas Airport, 16.3 nm (30.2 km) SE. Retrieved 2019/10/17 06:27 UTC (46 minutes ago):

TAF LEMD 170500Z 1706/1812 VRB05KT CAVOK TX19/1715Z TN08/1806Z TEMPO 1712/1719 25008KT PROB40 TEMPO 1709/1812 4000 RA SCT012 BKN035 PROB30 TEMPO 1709/1812 SHRA FEW020TCU